Time;durP1;ratioP1;P1;durP2;ratioP2;P2;SDS_P1;SDS_P2;PMS_P1;PMS_P2;Temp;Humidity;BMP_temperature;BMP_pressure;BME280_temperature;BME280_humidity;BME280_pressure;Samples;Min_cycle;Max_cycle;Signal;HPM_P1;HPM_P2
2022/09/29 00:04:30;;;;;;;9.95;8.65;;;;;;;2.62;100.00;99698.84;12920661;22;20008;-86
2022/09/29 00:09:31;;;;;;;9.40;7.90;;;;;;;2.21;100.00;99602.69;12893615;22;20004;-86
2022/09/29 00:14:34;;;;;;;10.85;8.32;;;;;;;3.54;100.00;99821.94;12919379;22;20003;-86
2022/09/29 00:19:34;;;;;;;10.60;8.27;;;;;;;2.75;100.00;99707.84;12893052;22;20464;-85
2022/09/29 00:24:35;;;;;;;9.07;8.15;;;;;;;2.95;100.00;99730.13;12879239;22;20047;-86
2022/09/29 00:29:36;;;;;;;8.90;8.00;;;;;;;3.15;100.00;99791.56;12869243;22;20008;-87
2022/09/29 00:34:36;;;;;;;12.80;8.80;;;;;;;3.95;100.00;99910.91;12864181;22;20438;-86
2022/09/29 00:39:39;;;;;;;9.25;7.70;;;;;;;3.81;100.00;99895.84;12880117;22;20015;-88
2022/09/29 00:45:18;;;;;;;11.60;9.65;;;;;;;4.32;100.00;99958.88;12847536;22;20026;-86
2022/09/29 00:50:26;;;;;;;14.27;10.85;;;;;;;2.32;100.00;99621.97;12819356;22;20026;-88
2022/09/29 00:55:38;;;;;;;14.10;10.50;;;;;;;2.62;100.00;99668.13;12822524;22;20469;-87
2022/09/29 01:00:42;;;;;;;15.63;11.60;;;;;;;2.97;100.00;99766.06;12804956;22;20079;-86
2022/09/29 01:05:48;;;;;;;12.27;10.05;;;;;;;2.93;100.00;99754.00;12769559;22;20036;-87
2022/09/29 01:10:49;;;;;;;13.70;10.43;;;;;;;2.77;100.00;99754.66;12798181;22;20022;-89
2022/09/29 01:15:52;;;;;;;11.73;10.52;;;;;;;3.29;100.00;99836.53;12822155;22;20017;-87
2022/09/29 01:21:07;;;;;;;15.25;12.05;;;;;;;3.56;100.00;99879.69;12821414;22;20016;-87
2022/09/29 01:26:56;;;;;;;14.98;12.48;;;;;;;1.65;100.00;99527.03;12838689;22;20442;-89
2022/09/29 01:32:03;;;;;;;18.77;13.85;;;;;;;2.81;100.00;99710.50;12826725;22;20054;-89
2022/09/29 01:37:13;;;;;;;21.80;12.88;;;;;;;3.62;100.00;99886.91;12849414;22;20506;-86
2022/09/29 01:42:18;;;;;;;26.15;12.73;;;;;;;4.37;100.00;100002.63;12850959;22;20016;-86
2022/09/29 01:47:22;;;;;;;24.23;14.43;;;;;;;3.03;100.00;99762.44;12826241;23;20024;-88
2022/09/29 01:52:25;;;;;;;26.38;15.48;;;;;;;2.83;100.00;99681.19;12818208;23;20436;-88
2022/09/29 01:57:44;;;;;;;26.92;15.18;;;;;;;4.43;100.00;99950.72;12797777;23;20039;-90
2022/09/29 02:02:49;;;;;;;18.00;13.60;;;;;;;2.97;100.00;99730.72;12852702;22;20051;-87
2022/09/29 02:07:49;;;;;;;14.80;11.80;;;;;;;3.57;100.00;99881.31;12826752;23;20077;-89
2022/09/29 02:12:55;;;;;;;15.23;12.07;;;;;;;2.32;100.00;99679.00;12823553;23;20081;-88
2022/09/29 02:18:06;;;;;;;16.43;12.67;;;;;;;3.08;100.00;99813.41;12770123;23;20012;-88
2022/09/29 02:23:07;;;;;;;17.00;11.85;;;;;;;3.70;100.00;99885.72;12826765;23;20013;-86
2022/09/29 02:28:10;;;;;;;25.27;14.43;;;;;;;2.63;100.00;99729.56;12755253;23;20087;-88
2022/09/29 02:33:39;;;;;;;18.98;14.40;;;;;;;4.21;100.00;99968.72;12772834;23;20011;-89
2022/09/29 02:38:47;;;;;;;17.38;13.35;;;;;;;4.21;100.00;99969.53;12833942;23;20019;-86
2022/09/29 02:44:06;;;;;;;15.73;12.88;;;;;;;3.44;100.00;99866.03;12851257;22;20343;-88
2022/09/29 02:49:17;;;;;;;18.77;14.10;;;;;;;2.40;100.00;99701.25;12886383;23;20414;-85
2022/09/29 02:54:36;;;;;;;18.73;13.43;;;;;;;3.58;100.00;99877.56;12852426;23;20008;-85
2022/09/29 03:00:08;;;;;;;15.45;12.38;;;;;;;4.03;100.00;99983.22;12868880;22;20020;-89
2022/09/29 03:05:16;;;;;;;16.00;12.57;;;;;;;2.75;100.00;99782.09;12753511;23;20015;-86
2022/09/29 03:10:19;;;;;;;16.85;12.43;;;;;;;2.49;100.00;99793.28;12780524;23;20078;-89
2022/09/29 03:15:20;;;;;;;15.13;12.23;;;;;;;2.45;100.00;99794.81;12795325;23;20015;-89
2022/09/29 03:20:21;;;;;;;18.95;13.85;;;;;;;2.47;100.00;99798.94;12810198;23;20023;-86
2022/09/29 03:25:23;;;;;;;17.83;15.10;;;;;;;2.52;100.00;99788.25;12769278;23;20020;-86
2022/09/29 03:30:24;;;;;;;18.13;14.43;;;;;;;3.80;100.00;99982.13;12785675;23;20399;-89
2022/09/29 03:35:24;;;;;;;17.02;13.30;;;;;;;2.12;100.00;99752.56;12827622;23;20000;-86
2022/09/29 03:40:26;;;;;;;32.17;13.65;;;;;;;1.79;100.00;99730.16;12792464;23;20039;-88
2022/09/29 03:45:26;;;;;;;20.48;13.00;;;;;;;3.57;100.00;100031.84;12813649;23;20020;-88
2022/09/29 03:50:27;;;;;;;18.45;12.85;;;;;;;2.66;100.00;99850.56;12827561;23;20087;-86
2022/09/29 03:55:28;;;;;;;15.05;12.10;;;;;;;1.68;100.00;99701.06;12803811;23;20000;-86
2022/09/29 04:00:29;;;;;;;21.15;12.65;;;;;;;1.27;100.00;99702.50;12816021;23;20020;-90
2022/09/29 04:05:30;;;;;;;15.02;11.52;;;;;;;1.99;100.00;99802.41;12829967;23;20032;-89
2022/09/29 04:10:33;;;;;;;21.65;11.27;;;;;;;2.39;100.00;99840.81;12816184;23;20011;-87
2022/09/29 04:15:36;;;;;;;20.13;11.70;;;;;;;2.21;100.00;99862.53;12793307;23;20004;-86
2022/09/29 04:20:38;;;;;;;16.25;11.05;;;;;;;2.92;100.00;99950.81;12802983;23;20987;-86
2022/09/29 04:25:38;;;;;;;14.02;11.10;;;;;;;2.79;100.00;99940.06;12825588;23;20007;-86
2022/09/29 04:30:41;;;;;;;15.45;11.07;;;;;;;1.47;100.00;99769.25;12756879;23;20016;-86
2022/09/29 04:35:42;;;;;;;12.95;11.23;;;;;;;2.52;100.00;99925.94;12821551;23;20330;-89
2022/09/29 04:40:43;;;;;;;12.93;11.38;;;;;;;1.69;100.00;99796.84;12828300;23;20016;-87
2022/09/29 04:45:43;;;;;;;41.40;12.05;;;;;;;1.86;100.00;99802.53;12854408;23;20048;-88
2022/09/29 04:50:44;;;;;;;15.40;12.10;;;;;;;2.06;100.00;99833.03;12795853;23;20024;-87
2022/09/29 04:55:45;;;;;;;20.08;12.45;;;;;;;2.49;100.00;99913.66;12808938;23;20009;-88
2022/09/29 05:00:46;;;;;;;26.08;13.63;;;;;;;2.47;100.00;99959.22;12837433;23;20406;-89
2022/09/29 05:05:46;;;;;;;55.75;14.75;;;;;;;0.72;100.00;99694.16;12779675;23;20008;-89
2022/09/29 05:10:50;;;;;;;28.60;13.05;;;;;;;1.71;100.00;99776.56;12818775;23;20004;-86
2022/09/29 05:15:54;;;;;;;22.88;14.68;;;;;;;2.37;100.00;99893.72;12817922;23;20011;-88
2022/09/29 05:20:55;;;;;;;28.33;14.90;;;;;;;2.64;100.00;99964.91;12815380;23;20098;-88
2022/09/29 05:26:00;;;;;;;26.92;16.23;;;;;;;1.86;100.00;99844.09;12828420;23;20502;-89
2022/09/29 05:31:02;;;;;;;21.40;15.15;;;;;;;1.80;100.00;99802.38;12828140;23;20058;-88
2022/09/29 05:36:06;;;;;;;24.27;13.60;;;;;;;3.34;100.00;100095.13;12816964;23;20004;-89
2022/09/29 05:41:11;;;;;;;28.42;16.52;;;;;;;2.39;100.00;99935.88;12801741;23;20039;-86
2022/09/29 05:46:15;;;;;;;25.08;18.80;;;;;;;3.36;100.00;100071.25;12818817;23;20020;-86
2022/09/29 05:51:18;;;;;;;24.33;17.85;;;;;;;2.34;100.00;99894.19;12803388;23;20031;-86
2022/09/29 05:56:24;;;;;;;29.88;18.88;;;;;;;3.12;100.00;100015.00;12811522;23;20009;-86
2022/09/29 06:01:25;;;;;;;24.98;18.35;;;;;;;1.88;100.00;99779.56;12811778;23;20012;-89
2022/09/29 06:06:26;;;;;;;24.27;17.77;;;;;;;2.63;100.00;99904.31;12792644;23;20066;-86
2022/09/29 06:11:32;;;;;;;25.95;18.85;;;;;;;3.07;100.00;99938.72;12815097;23;20150;-89
2022/09/29 06:16:33;;;;;;;31.08;20.45;;;;;;;1.94;100.00;99810.38;12782104;23;20008;-87
2022/09/29 06:21:38;;;;;;;26.65;20.00;;;;;;;3.24;100.00;99996.88;12785677;23;20024;-87
2022/09/29 06:26:39;;;;;;;31.70;20.48;;;;;;;2.43;100.00;99800.44;12771866;23;20434;-90
2022/09/29 06:31:44;;;;;;;34.08;23.38;;;;;;;2.02;100.00;99707.75;12739283;23;20004;-90
2022/09/29 06:42:05;;;;;;;31.80;21.45;;;;;;;4.83;100.00;100108.16;12815766;22;20020;-88
2022/09/29 06:47:05;;;;;;;32.35;23.05;;;;;;;4.13;100.00;99991.66;12865583;22;20501;-86
2022/09/29 06:52:06;;;;;;;32.25;21.58;;;;;;;4.27;100.00;100005.09;12869713;22;20011;-90
2022/09/29 06:57:07;;;;;;;31.25;21.27;;;;;;;3.88;100.00;99914.78;12896744;22;20000;-90
2022/09/29 07:02:09;;;;;;;29.50;22.33;;;;;;;3.38;100.00;99840.56;12851816;22;20086;-88
2022/09/29 07:07:09;;;;;;;31.35;22.52;;;;;;;3.76;100.00;99863.88;12826023;22;20035;-88
2022/09/29 07:12:10;;;;;;;27.40;19.60;;;;;;;5.07;100.00;100093.75;12873233;22;20334;-89
2022/09/29 07:17:14;;;;;;;31.83;21.23;;;;;;;3.55;100.00;99848.06;12863988;22;20000;-87
2022/09/29 07:22:14;;;;;;;28.77;20.73;;;;;;;4.22;100.00;99930.34;12870706;22;20442;-87
2022/09/29 07:27:20;;;;;;;33.17;22.80;;;;;;;4.67;100.00;99998.97;12846591;22;20098;-88
2022/09/29 07:32:20;;;;;;;34.72;23.88;;;;;;;4.42;100.00;99986.38;12808771;22;19996;-89
2022/09/29 07:37:21;;;;;;;38.00;24.92;;;;;;;5.10;100.00;100058.59;12859975;22;20003;-88
2022/09/29 07:42:23;;;;;;;41.90;24.77;;;;;;;5.54;100.00;100102.72;12813967;22;20020;-90
2022/09/29 07:47:24;;;;;;;42.85;27.30;;;;;;;4.50;100.00;99917.91;12887962;22;20343;-88
2022/09/29 07:52:25;;;;;;;41.67;26.92;;;;;;;4.62;100.00;99954.16;12862623;22;20061;-89
2022/09/29 07:57:28;;;;;;;43.13;28.00;;;;;;;4.39;100.00;99902.38;12887966;22;20004;-89
2022/09/29 08:02:28;;;;;;;38.90;26.55;;;;;;;4.79;100.00;99937.06;12887496;22;20090;-88
2022/09/29 08:07:32;;;;;;;44.28;27.65;;;;;;;5.42;100.00;99966.22;12795479;22;20019;-90
2022/09/29 08:12:32;;;;;;;39.45;27.50;;;;;;;5.11;100.00;99895.75;12834866;22;20002;-90
2022/09/29 08:17:33;;;;;;;46.78;30.55;;;;;;;5.35;100.00;99907.38;12875122;22;20004;-89
2022/09/29 08:22:34;;;;;;;46.67;31.10;;;;;;;5.97;100.00;99997.59;12841518;22;20087;-88
2022/09/29 08:27:35;;;;;;;46.65;29.48;;;;;;;6.94;100.00;100126.16;12876732;22;20004;-87
2022/09/29 08:32:35;;;;;;;46.80;32.38;;;;;;;6.70;100.00;100059.81;12873476;22;20004;-89
2022/09/29 08:37:37;;;;;;;42.13;27.48;;;;;;;6.39;100.00;99969.09;12872952;22;20007;-90
2022/09/29 08:42:46;;;;;;;37.65;26.58;;;;;;;8.20;100.00;100183.00;12859268;22;20019;-90
2022/09/29 08:47:49;;;;;;;30.52;21.98;;;;;;;7.61;100.00;100115.13;12919594;22;20008;-90
2022/09/29 08:53:01;;;;;;;26.85;21.17;;;;;;;7.22;100.00;100002.03;12875955;22;20060;-90
2022/09/29 08:58:02;;;;;;;22.05;17.85;;;;;;;7.07;100.00;99937.78;12892322;22;20008;-90
2022/09/29 09:03:24;;;;;;;23.27;17.23;;;;;;;9.17;100.00;100196.09;12904274;22;20442;-90
2022/09/29 09:08:30;;;;;;;22.60;15.75;;;;;;;8.71;100.00;100088.66;12868107;22;20065;-91
2022/09/29 09:14:01;;;;;;;17.55;14.55;;;;;;;9.93;100.00;100193.06;12856709;22;20095;-90
2022/09/29 09:19:46;;;;;;;17.75;12.43;;;;;;;10.40;100.00;100218.91;12936490;22;20023;-89
2022/09/29 09:24:55;;;;;;;14.63;11.20;;;;;;;9.72;100.00;100045.63;12696003;22;20007;-89
2022/09/29 09:30:15;;;;;;;10.82;9.73;;;;;;;10.32;100.00;100084.63;12937303;22;20053;-89
2022/09/29 09:35:31;;;;;;;10.10;7.57;;;;;;;11.45;100.00;100176.34;12801351;22;20137;-89
2022/09/29 09:40:52;;;;;;;9.00;8.10;;;;;;;10.70;100.00;100023.53;12908582;22;20043;-89
2022/09/29 09:46:57;;;;;;;7.45;6.65;;;;;;;10.76;100.00;100023.53;12847738;22;20375;-89
2022/09/29 09:52:43;;;;;;;8.52;6.70;;;;;;;10.83;100.00;99969.00;12694527;22;20022;-89
2022/09/29 09:57:59;;;;;;;6.68;5.45;;;;;;;11.70;100.00;100032.94;12824803;22;20422;-89
2022/09/29 10:03:01;;;;;;;7.32;5.53;;;;;;;11.62;100.00;100019.75;12870402;22;20024;-91
2022/09/29 10:08:03;;;;;;;6.97;6.28;;;;;;;11.94;100.00;100034.25;12834614;22;20008;-90
2022/09/29 10:13:05;;;;;;;5.85;5.25;;;;;;;12.00;100.00;100002.75;12935997;22;20008;-89
2022/09/29 10:18:27;;;;;;;6.65;5.18;;;;;;;13.48;100.00;100181.19;12902571;22;20008;-94
2022/09/29 10:23:31;;;;;;;8.35;5.15;;;;;;;12.64;100.00;100045.91;12929405;22;20016;-92
2022/09/29 10:28:38;;;;;;;6.47;5.07;;;;;;;11.79;100.00;99964.22;12825010;22;20006;-95
2022/09/29 10:33:45;;;;;;;6.80;5.13;;;;;;;11.89;100.00;99941.31;12890463;22;20061;-93
2022/09/29 10:38:46;;;;;;;5.78;3.97;;;;;;;13.13;100.00;100071.75;12875360;22;20400;-93
2022/09/29 10:43:51;;;;;;;6.15;3.58;;;;;;;13.31;100.00;100075.72;12909606;22;20023;-90
2022/09/29 10:49:15;;;;;;;5.10;3.83;;;;;;;12.90;100.00;99935.22;12896916;22;20007;-90
2022/09/29 10:54:18;;;;;;;3.50;2.95;;;;;;;13.81;100.00;100045.84;12911524;22;20000;-91
2022/09/29 10:59:31;;;;;;;;;;;;;;;;;;;;;
2022/09/29 11:04:38;;;;;;;1.70;1.30;;;;;;;13.57;100.00;100050.56;12919753;22;20016;-87
2022/09/29 11:09:40;;;;;;;2.13;1.60;;;;;;;14.43;100.00;100083.78;12898324;22;20384;-88
2022/09/29 11:14:41;;;;;;;2.10;1.10;;;;;;;14.91;100.00;100188.91;12911003;22;20008;-88
2022/09/29 11:19:42;;;;;;;2.80;1.30;;;;;;;13.26;100.00;99995.59;12825070;22;20107;-87
2022/09/29 11:25:00;;;;;;;4.05;1.00;;;;;;;15.04;100.00;100204.78;12864869;22;20057;-88
2022/09/29 11:30:16;;;;;;;2.65;0.75;;;;;;;13.61;100.00;99935.47;12919802;22;20338;-88
2022/09/29 11:35:42;;;;;;;1.40;0.80;;;;;;;14.56;100.00;100199.38;12897182;22;20090;-87
2022/09/29 11:41:02;;;;;;;2.80;0.63;;;;;;;13.87;100.00;100050.19;12893551;22;20016;-87
2022/09/29 11:46:43;;;;;;;1.88;0.68;;;;;;;14.71;100.00;100203.88;12910974;22;20019;-87
2022/09/29 11:52:41;;;;;;;1.23;0.93;;;;;;;15.51;100.00;100186.25;12951106;22;20090;-87
2022/09/29 11:57:46;;;;;;;2.40;0.55;;;;;;;15.67;100.00;100083.34;12687287;23;20511;-84
2022/09/29 12:03:04;;;;;;;2.25;0.88;;;;;;;15.99;100.00;99967.78;12888993;22;20015;-91
2022/09/29 12:08:23;;;;;;;3.50;0.70;;;;;;;16.04;100.00;100098.13;12917385;22;20011;-88
2022/09/29 12:13:42;;;;;;;2.25;0.40;;;;;;;16.96;100.00;100100.81;12944398;22;20004;-86
2022/09/29 12:18:55;;;;;;;1.35;0.30;;;;;;;18.53;88.08;100091.13;12876909;22;20018;-89
2022/09/29 12:23:56;;;;;;;2.05;0.50;;;;;;;18.96;84.58;100054.06;12903741;22;20083;-88
2022/09/29 12:29:02;;;;;;;8.13;0.88;;;;;;;17.87;83.54;100088.38;12876865;22;20031;-88
2022/09/29 12:34:12;;;;;;;1.63;0.50;;;;;;;15.84;93.88;100075.22;12864993;22;20027;-87
2022/09/29 12:39:41;;;;;;;1.05;0.35;;;;;;;14.54;100.00;100024.31;12876166;22;20019;-87
2022/09/29 12:45:17;;;;;;;1.90;1.05;;;;;;;13.65;100.00;100002.91;12750196;22;20101;-87
2022/09/29 12:50:32;;;;;;;0.77;0.40;;;;;;;13.56;100.00;100059.97;12730172;22;20017;-88
2022/09/29 12:55:43;;;;;;;2.50;0.40;;;;;;;14.39;100.00;100233.06;12675560;22;20006;-90
2022/09/29 13:00:44;;;;;;;1.88;0.30;;;;;;;12.31;100.00;99964.72;12683994;22;20021;-90
2022/09/29 13:06:03;;;;;;;1.10;0.20;;;;;;;13.88;100.00;100234.44;12718598;22;20014;-93
2022/09/29 13:11:31;;;;;;;7.72;1.85;;;;;;;12.76;100.00;100169.03;12839737;22;20026;-89
2022/09/29 13:17:02;;;;;;;5.13;1.30;;;;;;;12.20;100.00;100226.16;12841237;22;20051;-88
2022/09/29 13:22:08;;;;;;;2.90;1.23;;;;;;;11.50;100.00;100196.47;12699615;22;20012;-89
2022/09/29 13:27:14;;;;;;;7.85;0.82;;;;;;;9.56;100.00;99973.28;12751961;22;20363;-88
2022/09/29 13:32:14;;;;;;;2.05;1.13;;;;;;;9.75;100.00;99977.19;12727471;22;20030;-88
2022/09/29 13:37:19;;;;;;;2.00;1.25;;;;;;;10.91;100.00;100144.69;12702742;22;20034;-88
2022/09/29 13:42:35;;;;;;;4.07;1.58;;;;;;;12.15;100.00;100275.00;12774105;22;20012;-87
2022/09/29 13:47:38;;;;;;;2.30;1.13;;;;;;;12.60;100.00;100309.09;12921513;22;20030;-89
2022/09/29 13:52:39;;;;;;;2.28;0.70;;;;;;;12.77;100.00;100181.69;12889987;22;20011;-87
2022/09/29 13:57:49;;;;;;;2.45;0.98;;;;;;;13.10;100.00;100174.56;12873903;22;20007;-87
2022/09/29 14:03:00;;;;;;;1.50;1.10;;;;;;;12.92;100.00;100223.06;12890395;22;20016;-86
2022/09/29 14:08:04;;;;;;;2.92;1.30;;;;;;;12.59;100.00;100277.91;12889744;22;20057;-88
2022/09/29 14:13:10;;;;;;;2.60;1.17;;;;;;;11.32;100.00;100211.63;12922852;22;20012;-88
2022/09/29 14:18:43;;;;;;;4.47;0.90;;;;;;;11.77;100.00;100289.09;12857142;22;20447;-88
2022/09/29 14:23:50;;;;;;;2.30;1.40;;;;;;;9.23;100.00;99931.41;12907689;22;20039;-89
2022/09/29 14:28:50;;;;;;;4.03;1.70;;;;;;;10.37;100.00;100103.88;12902119;22;20004;-90
2022/09/29 14:33:52;;;;;;;3.65;2.05;;;;;;;10.70;100.00;100152.91;12891055;22;20429;-89
2022/09/29 14:38:54;;;;;;;7.03;2.60;;;;;;;10.41;100.00;100094.78;12889659;22;20446;-90
2022/09/29 14:43:56;;;;;;;5.38;2.38;;;;;;;10.01;100.00;99955.25;12889993;22;20020;-92
2022/09/29 14:54:41;;;;;;;4.75;2.28;;;;;;;13.72;100.00;100318.72;12948838;22;19999;-91
2022/09/29 14:59:52;;;;;;;4.55;1.80;;;;;;;14.10;100.00;100327.25;12922187;22;20024;-89
2022/09/29 15:04:52;;;;;;;4.05;2.25;;;;;;;14.21;100.00;100342.63;12911648;22;20448;-89
2022/09/29 15:09:57;;;;;;;2.42;1.25;;;;;;;12.86;100.00;100155.13;12885027;22;20042;-90
2022/09/29 15:15:01;;;;;;;2.10;1.40;;;;;;;13.00;100.00;100280.47;12851426;22;20462;-89
2022/09/29 15:20:55;;;;;;;4.00;1.30;;;;;;;12.29;100.00;100271.38;12877596;22;20338;-89
2022/09/29 15:25:56;;;;;;;5.80;1.30;;;;;;;10.80;100.00;100108.06;12721231;22;20012;-89
2022/09/29 15:31:00;;;;;;;1.67;0.95;;;;;;;11.13;100.00;100166.44;12863646;22;20016;-89
2022/09/29 15:36:06;;;;;;;4.75;1.45;;;;;;;11.03;100.00;100186.56;12873254;22;20022;-89
2022/09/29 15:41:20;;;;;;;7.35;1.50;;;;;;;10.17;100.00;100055.94;12850133;22;20095;-89
2022/09/29 15:46:24;;;;;;;3.13;1.40;;;;;;;10.82;100.00;100179.38;12672965;22;20022;-89
2022/09/29 15:51:28;;;;;;;5.93;1.50;;;;;;;10.54;100.00;100137.47;12748689;22;20010;-89
2022/09/29 15:56:30;;;;;;;5.38;1.38;;;;;;;10.62;100.00;100172.72;12734263;22;20005;-89
2022/09/29 16:01:33;;;;;;;2.70;1.52;;;;;;;10.82;100.00;100232.50;12811297;22;20012;-89
2022/09/29 16:06:38;;;;;;;3.10;1.98;;;;;;;11.16;100.00;100372.53;12726574;22;20007;-89
2022/09/29 16:11:39;;;;;;;3.55;1.40;;;;;;;11.22;100.00;100400.94;12686166;22;20081;-89
2022/09/29 16:16:41;;;;;;;2.85;1.60;;;;;;;8.97;100.00;99996.34;12770821;22;20352;-88
2022/09/29 16:21:42;;;;;;;6.22;1.70;;;;;;;10.21;100.00;100248.75;12638681;22;20033;-87
2022/09/29 16:26:52;;;;;;;3.03;2.03;;;;;;;10.29;100.00;100257.38;12687743;22;20042;-86
2022/09/29 16:31:53;;;;;;;2.55;2.13;;;;;;;9.16;100.00;100093.69;12805382;22;20008;-87
2022/09/29 16:37:04;;;;;;;3.13;2.35;;;;;;;9.36;100.00;100116.88;12721839;22;20368;-86
2022/09/29 16:42:25;;;;;;;5.03;2.72;;;;;;;9.31;100.00;100128.66;12692023;22;20046;-87
2022/09/29 16:47:31;;;;;;;3.08;2.28;;;;;;;9.43;100.00;100217.22;12759334;23;20011;-85
2022/09/29 16:52:49;;;;;;;6.87;2.60;;;;;;;10.09;100.00;100304.00;12740833;23;20466;-91
2022/09/29 16:58:10;;;;;;;3.97;2.10;;;;;;;10.51;100.00;100429.75;12822630;23;20019;-89
2022/09/29 17:03:13;;;;;;;25.83;4.50;;;;;;;9.93;100.00;100355.31;12801967;23;20012;-89
2022/09/29 17:08:20;;;;;;;6.03;2.63;;;;;;;9.09;100.00;100170.81;12797114;23;20091;-88
2022/09/29 17:13:24;;;;;;;8.00;2.72;;;;;;;9.34;100.00;100278.38;12751061;23;20084;-87
2022/09/29 17:18:28;;;;;;;4.68;2.97;;;;;;;10.29;100.00;100455.47;12759000;23;20021;-87
2022/09/29 17:23:29;;;;;;;6.13;3.05;;;;;;;9.49;100.00;100348.03;12831031;23;20016;-87
2022/09/29 17:28:29;;;;;;;5.15;2.95;;;;;;;8.71;100.00;100212.97;12765141;23;20005;-89
2022/09/29 17:33:30;;;;;;;5.25;2.88;;;;;;;8.95;100.00;100237.34;12810909;23;20502;-85
2022/09/29 17:38:30;;;;;;;9.40;4.57;;;;;;;8.31;100.00;100180.38;12741569;23;20025;-87
2022/09/29 17:43:31;;;;;;;5.25;3.60;;;;;;;9.79;100.00;100451.13;12815805;22;20051;-87
2022/09/29 17:48:33;;;;;;;6.85;4.50;;;;;;;9.04;100.00;100302.53;12782557;23;20047;-89
2022/09/29 17:53:35;;;;;;;9.38;4.65;;;;;;;8.90;100.00;100295.78;12809144;23;20032;-88
2022/09/29 17:58:39;;;;;;;7.10;4.85;;;;;;;8.79;100.00;100303.09;12778215;23;20495;-89
2022/09/29 18:03:41;;;;;;;9.48;5.88;;;;;;;8.19;100.00;100247.16;12756672;23;20008;-89
2022/09/29 18:08:41;;;;;;;17.17;8.23;;;;;;;8.80;100.00;100345.06;12732592;22;20447;-88
2022/09/29 18:13:44;;;;;;;18.15;9.15;;;;;;;8.94;100.00;100423.22;12792205;23;20023;-86
2022/09/29 18:18:45;;;;;;;14.20;8.68;;;;;;;7.44;100.00;100211.00;12772186;23;20004;-89
2022/09/29 18:23:46;;;;;;;17.52;8.18;;;;;;;7.91;100.00;100285.69;12803743;23;20017;-88
2022/09/29 18:28:50;;;;;;;15.15;8.52;;;;;;;7.89;100.00;100294.97;12766299;23;20056;-88
2022/09/29 18:33:51;;;;;;;15.10;8.40;;;;;;;8.64;100.00;100424.47;12795916;23;20071;-89
2022/09/29 18:38:51;;;;;;;12.50;9.00;;;;;;;7.34;100.00;100262.88;12772935;23;20511;-88
2022/09/29 18:43:53;;;;;;;9.75;7.43;;;;;;;9.25;100.00;100542.53;12759095;23;20028;-90
2022/09/29 18:48:53;;;;;;;11.93;8.52;;;;;;;8.55;100.00;100497.31;12820478;23;20004;-90
2022/09/29 18:53:54;;;;;;;11.88;8.95;;;;;;;8.39;100.00;100429.53;12734125;23;20004;-90
2022/09/29 18:58:55;;;;;;;9.43;7.20;;;;;;;8.74;100.00;100516.25;12769235;23;20392;-90
2022/09/29 19:03:56;;;;;;;10.48;7.93;;;;;;;7.79;100.00;100346.91;12738202;23;20012;-89
2022/09/29 19:09:00;;;;;;;10.95;8.38;;;;;;;7.11;100.00;100202.78;12807343;23;20314;-88
2022/09/29 19:14:03;;;;;;;9.40;7.80;;;;;;;7.50;100.00;100310.50;12751466;23;20394;-89
2022/09/29 19:19:06;;;;;;;14.93;10.13;;;;;;;8.66;100.00;100503.78;12758615;23;20083;-89
2022/09/29 19:24:07;;;;;;;22.10;15.90;;;;;;;7.36;100.00;100277.16;12797745;23;20039;-89
2022/09/29 19:29:07;;;;;;;24.83;19.40;;;;;;;8.24;100.00;100441.91;12836590;23;20082;-89
2022/09/29 19:34:08;;;;;;;20.88;16.42;;;;;;;7.76;100.00;100379.44;12751043;23;19996;-90
2022/09/29 19:39:10;;;;;;;16.88;13.50;;;;;;;8.58;100.00;100524.25;12807245;23;20046;-92
2022/09/29 19:44:11;;;;;;;16.90;12.93;;;;;;;7.66;100.00;100416.53;12816789;22;20027;-92
2022/09/29 19:49:12;;;;;;;14.38;11.00;;;;;;;8.58;100.00;100535.25;12833598;23;20084;-88
2022/09/29 19:54:15;;;;;;;14.57;10.07;;;;;;;7.63;100.00;100408.81;12792936;23;20004;-91
2022/09/29 19:59:28;;;;;;;13.32;9.35;;;;;;;8.95;100.00;100655.53;12820302;23;20016;-89
2022/09/29 20:04:33;;;;;;;14.20;11.23;;;;;;;8.41;100.00;100589.25;12681208;23;20021;-88
2022/09/29 20:09:34;;;;;;;18.33;12.52;;;;;;;7.54;100.00;100360.16;12739168;23;20000;-87
2022/09/29 20:14:36;;;;;;;18.00;11.57;;;;;;;7.01;100.00;100296.50;12782888;23;20510;-88
2022/09/29 20:19:37;;;;;;;18.85;12.45;;;;;;;8.84;100.00;100612.50;12786168;23;20466;-90
2022/09/29 20:24:44;;;;;;;16.98;13.18;;;;;;;7.57;100.00;100371.47;12708972;23;20069;-90
2022/09/29 20:29:50;;;;;;;19.45;13.10;;;;;;;7.19;100.00;100325.56;12660227;23;20079;-90
2022/09/29 20:34:52;;;;;;;17.60;12.50;;;;;;;7.96;100.00;100445.59;12770619;23;20316;-89
2022/09/29 20:39:53;;;;;;;14.68;11.15;;;;;;;9.31;100.00;100691.81;12781752;23;20020;-88
2022/09/29 20:44:54;;;;;;;15.75;12.13;;;;;;;7.14;100.00;100309.88;12769895;22;20343;-89
2022/09/29 20:49:55;;;;;;;17.70;12.90;;;;;;;8.49;100.00;100542.22;12763118;23;20009;-89
2022/09/29 20:54:58;;;;;;;14.93;11.80;;;;;;;7.32;100.00;100351.81;12775727;23;20477;-88
2022/09/29 20:59:59;;;;;;;20.38;13.75;;;;;;;8.03;100.00;100470.91;12833030;23;20012;-88
2022/09/29 21:04:59;;;;;;;18.38;12.35;;;;;;;7.98;100.00;100492.78;12774916;23;20024;-90
2022/09/29 21:10:02;;;;;;;17.15;12.77;;;;;;;7.46;100.00;100378.66;12814317;23;20522;-89
2022/09/29 21:15:03;;;;;;;19.55;13.43;;;;;;;8.32;100.00;100524.88;12769719;23;20042;-88
2022/09/29 21:20:35;;;;;;;16.38;12.43;;;;;;;7.95;100.00;100519.84;12671870;23;20029;-90
2022/09/29 21:25:36;;;;;;;19.70;12.57;;;;;;;8.03;100.00;100517.53;12796228;23;20008;-89
2022/09/29 21:30:37;;;;;;;15.93;12.80;;;;;;;8.41;100.00;100589.25;12822696;23;20007;-88
2022/09/29 21:35:37;;;;;;;18.88;12.73;;;;;;;7.43;100.00;100458.56;12799644;23;20008;-87
2022/09/29 21:40:40;;;;;;;19.13;13.00;;;;;;;6.82;100.00;100365.09;12797685;23;20050;-89
2022/09/29 21:45:41;;;;;;;17.17;12.13;;;;;;;8.12;100.00;100651.47;12763903;23;20048;-89
2022/09/29 21:50:41;;;;;;;14.20;11.35;;;;;;;7.79;100.00;100603.66;12825407;23;20411;-88
2022/09/29 21:55:45;;;;;;;18.80;13.90;;;;;;;6.75;100.00;100429.22;12785755;23;20092;-86
2022/09/29 22:00:46;;;;;;;18.90;14.00;;;;;;;6.66;100.00;100467.88;12820441;23;20051;-89
2022/09/29 22:05:49;;;;;;;22.95;15.50;;;;;;;7.29;100.00;100591.38;12741272;23;20024;-88
2022/09/29 22:10:50;;;;;;;24.60;16.02;;;;;;;7.62;100.00;100650.16;12841923;23;20054;-86
2022/09/29 22:15:52;;;;;;;20.20;15.30;;;;;;;6.00;100.00;100379.66;12848873;23;20008;-87
2022/09/29 22:20:52;;;;;;;22.80;16.60;;;;;;;6.29;100.00;100491.06;12810320;23;20019;-89
2022/09/29 22:25:53;;;;;;;22.38;15.40;;;;;;;6.86;100.00;100587.94;12824469;23;20371;-88
2022/09/29 22:30:54;;;;;;;24.65;17.00;;;;;;;7.24;100.00;100646.03;12783163;23;20031;-88
2022/09/29 22:35:55;;;;;;;21.02;14.60;;;;;;;6.67;100.00;100587.16;12792711;23;20061;-89
2022/09/29 22:40:56;;;;;;;22.02;15.40;;;;;;;7.50;100.00;100745.22;12808204;23;20312;-88
2022/09/29 22:45:57;;;;;;;28.48;17.00;;;;;;;5.99;100.00;100522.81;12823666;23;20103;-88
2022/09/29 22:50:57;;;;;;;23.80;17.65;;;;;;;5.95;100.00;100498.94;12783464;23;20012;-88
2022/09/29 22:55:59;;;;;;;22.55;16.42;;;;;;;5.65;100.00;100454.16;12817409;23;20008;-88
2022/09/29 23:01:05;;;;;;;28.58;18.65;;;;;;;6.59;100.00;100608.56;12805739;23;20042;-88
2022/09/29 23:06:06;;;;;;;24.60;18.23;;;;;;;5.16;100.00;100427.94;12824158;23;20071;-88
2022/09/29 23:11:06;;;;;;;26.67;19.85;;;;;;;6.54;100.00;100639.38;12837175;23;20051;-88
2022/09/29 23:16:07;;;;;;;28.55;19.13;;;;;;;6.33;100.00;100601.63;12823078;23;20004;-88
2022/09/29 23:21:08;;;;;;;27.80;20.38;;;;;;;6.74;100.00;100649.16;12770248;23;20020;-87
2022/09/29 23:26:08;;;;;;;31.20;20.83;;;;;;;6.55;100.00;100586.34;12784637;23;20084;-88